sensor_id;sensor_type;location;lat;lon;timestamp;P1;durP1;ratioP1;P2;durP2;ratioP2
56173;SDS011;42058;52.308;20.924;2023-06-22T00:02:29;17.50;;;15.80;;
56173;SDS011;42058;52.308;20.924;2023-06-22T00:04:56;19.90;;;15.80;;
56173;SDS011;42058;52.308;20.924;2023-06-22T00:07:24;18.70;;;16.70;;
56173;SDS011;42058;52.308;20.924;2023-06-22T00:10:03;17.20;;;15.50;;
56173;SDS011;42058;52.308;20.924;2023-06-22T00:12:32;18.70;;;15.60;;
56173;SDS011;42058;52.308;20.924;2023-06-22T00:15:03;17.10;;;15.30;;
56173;SDS011;42058;52.308;20.924;2023-06-22T00:17:51;21.30;;;16.20;;
56173;SDS011;42058;52.308;20.924;2023-06-22T00:20:23;20.30;;;15.60;;
56173;SDS011;42058;52.308;20.924;2023-06-22T00:23:24;20.70;;;15.70;;
56173;SDS011;42058;52.308;20.924;2023-06-22T00:26:00;18.70;;;16.00;;
56173;SDS011;42058;52.308;20.924;2023-06-22T00:28:31;18.30;;;16.40;;
56173;SDS011;42058;52.308;20.924;2023-06-22T00:31:01;16.70;;;15.00;;
56173;SDS011;42058;52.308;20.924;2023-06-22T00:33:40;18.50;;;15.20;;
56173;SDS011;42058;52.308;20.924;2023-06-22T00:38:59;20.90;;;15.10;;
56173;SDS011;42058;52.308;20.924;2023-06-22T00:41:50;17.60;;;15.80;;
56173;SDS011;42058;52.308;20.924;2023-06-22T00:44:38;22.40;;;16.00;;
56173;SDS011;42058;52.308;20.924;2023-06-22T00:47:05;18.20;;;16.30;;
56173;SDS011;42058;52.308;20.924;2023-06-22T00:49:48;18.00;;;16.00;;
56173;SDS011;42058;52.308;20.924;2023-06-22T00:52:42;16.70;;;14.90;;
56173;SDS011;42058;52.308;20.924;2023-06-22T00:55:32;17.00;;;15.30;;
56173;SDS011;42058;52.308;20.924;2023-06-22T00:58:14;17.20;;;15.50;;
56173;SDS011;42058;52.308;20.924;2023-06-22T01:04:53;20.60;;;17.40;;
56173;SDS011;42058;52.308;20.924;2023-06-22T01:07:26;19.30;;;17.30;;
56173;SDS011;42058;52.308;20.924;2023-06-22T01:10:23;19.50;;;15.40;;
56173;SDS011;42058;52.308;20.924;2023-06-22T01:13:04;17.50;;;15.30;;
56173;SDS011;42058;52.308;20.924;2023-06-22T01:15:41;17.80;;;16.00;;
56173;SDS011;42058;52.308;20.924;2023-06-22T01:18:17;20.90;;;16.50;;
56173;SDS011;42058;52.308;20.924;2023-06-22T01:20:47;23.70;;;16.60;;
56173;SDS011;42058;52.308;20.924;2023-06-22T01:23:22;19.70;;;17.30;;
56173;SDS011;42058;52.308;20.924;2023-06-22T01:26:01;19.80;;;17.10;;
56173;SDS011;42058;52.308;20.924;2023-06-22T01:28:47;18.90;;;16.90;;
56173;SDS011;42058;52.308;20.924;2023-06-22T01:31:20;22.40;;;17.60;;
56173;SDS011;42058;52.308;20.924;2023-06-22T01:33:54;20.20;;;17.70;;
56173;SDS011;42058;52.308;20.924;2023-06-22T01:36:25;18.80;;;16.70;;
56173;SDS011;42058;52.308;20.924;2023-06-22T01:38:54;20.40;;;18.10;;
56173;SDS011;42058;52.308;20.924;2023-06-22T01:41:25;20.00;;;17.70;;
56173;SDS011;42058;52.308;20.924;2023-06-22T01:43:55;23.40;;;18.20;;
56173;SDS011;42058;52.308;20.924;2023-06-22T01:46:24;21.20;;;18.70;;
56173;SDS011;42058;52.308;20.924;2023-06-22T01:48:52;33.00;;;18.90;;
56173;SDS011;42058;52.308;20.924;2023-06-22T01:51:22;21.80;;;18.50;;
56173;SDS011;42058;52.308;20.924;2023-06-22T01:53:50;23.00;;;18.30;;
56173;SDS011;42058;52.308;20.924;2023-06-22T01:56:19;19.60;;;17.20;;
56173;SDS011;42058;52.308;20.924;2023-06-22T01:58:57;21.50;;;18.40;;
56173;SDS011;42058;52.308;20.924;2023-06-22T02:01:34;19.40;;;17.40;;
56173;SDS011;42058;52.308;20.924;2023-06-22T02:04:11;21.10;;;18.90;;
56173;SDS011;42058;52.308;20.924;2023-06-22T02:06:46;21.80;;;18.20;;
56173;SDS011;42058;52.308;20.924;2023-06-22T02:09:19;20.80;;;18.60;;
56173;SDS011;42058;52.308;20.924;2023-06-22T02:11:50;19.70;;;17.60;;
56173;SDS011;42058;52.308;20.924;2023-06-22T02:14:23;22.90;;;17.90;;
56173;SDS011;42058;52.308;20.924;2023-06-22T02:16:51;22.50;;;18.50;;
56173;SDS011;42058;52.308;20.924;2023-06-22T02:19:24;21.40;;;18.60;;
56173;SDS011;42058;52.308;20.924;2023-06-22T02:21:53;22.30;;;18.80;;
56173;SDS011;42058;52.308;20.924;2023-06-22T02:24:21;22.30;;;19.20;;
56173;SDS011;42058;52.308;20.924;2023-06-22T02:26:50;32.30;;;19.90;;
56173;SDS011;42058;52.308;20.924;2023-06-22T02:29:18;32.00;;;23.20;;
56173;SDS011;42058;52.308;20.924;2023-06-22T02:31:46;50.60;;;23.80;;
56173;SDS011;42058;52.308;20.924;2023-06-22T02:34:14;24.90;;;22.20;;
56173;SDS011;42058;52.308;20.924;2023-06-22T02:36:46;28.00;;;23.30;;
56173;SDS011;42058;52.308;20.924;2023-06-22T02:39:19;28.70;;;23.60;;
56173;SDS011;42058;52.308;20.924;2023-06-22T02:41:50;31.30;;;26.20;;
56173;SDS011;42058;52.308;20.924;2023-06-22T02:44:19;37.70;;;26.80;;
56173;SDS011;42058;52.308;20.924;2023-06-22T02:46:48;37.00;;;28.90;;
56173;SDS011;42058;52.308;20.924;2023-06-22T02:49:17;36.00;;;30.10;;
56173;SDS011;42058;52.308;20.924;2023-06-22T02:51:45;38.40;;;29.60;;
56173;SDS011;42058;52.308;20.924;2023-06-22T02:54:16;37.60;;;30.40;;
56173;SDS011;42058;52.308;20.924;2023-06-22T02:56:45;37.70;;;30.20;;
56173;SDS011;42058;52.308;20.924;2023-06-22T02:59:13;38.10;;;30.70;;
56173;SDS011;42058;52.308;20.924;2023-06-22T03:01:40;37.00;;;31.00;;
56173;SDS011;42058;52.308;20.924;2023-06-22T03:04:21;40.00;;;31.50;;
56173;SDS011;42058;52.308;20.924;2023-06-22T03:06:49;39.10;;;31.10;;
56173;SDS011;42058;52.308;20.924;2023-06-22T03:09:19;38.00;;;31.30;;
56173;SDS011;42058;52.308;20.924;2023-06-22T03:11:47;38.80;;;31.80;;
56173;SDS011;42058;52.308;20.924;2023-06-22T03:14:15;42.30;;;31.80;;
56173;SDS011;42058;52.308;20.924;2023-06-22T03:16:43;39.80;;;31.90;;
56173;SDS011;42058;52.308;20.924;2023-06-22T03:19:11;37.60;;;30.50;;
56173;SDS011;42058;52.308;20.924;2023-06-22T03:21:39;39.90;;;31.50;;
56173;SDS011;42058;52.308;20.924;2023-06-22T03:24:07;40.10;;;32.30;;
56173;SDS011;42058;52.308;20.924;2023-06-22T03:26:35;40.50;;;32.50;;
56173;SDS011;42058;52.308;20.924;2023-06-22T03:29:03;38.30;;;32.00;;
56173;SDS011;42058;52.308;20.924;2023-06-22T03:31:31;38.80;;;32.00;;
56173;SDS011;42058;52.308;20.924;2023-06-22T03:33:59;37.60;;;30.90;;
56173;SDS011;42058;52.308;20.924;2023-06-22T03:36:27;40.30;;;31.40;;
56173;SDS011;42058;52.308;20.924;2023-06-22T03:38:55;37.20;;;30.80;;
56173;SDS011;42058;52.308;20.924;2023-06-22T03:41:23;36.00;;;30.90;;
56173;SDS011;42058;52.308;20.924;2023-06-22T03:43:51;39.10;;;30.40;;
56173;SDS011;42058;52.308;20.924;2023-06-22T03:46:18;37.80;;;30.40;;
56173;SDS011;42058;52.308;20.924;2023-06-22T03:48:47;39.20;;;31.10;;
56173;SDS011;42058;52.308;20.924;2023-06-22T03:51:15;36.70;;;30.70;;
56173;SDS011;42058;52.308;20.924;2023-06-22T03:53:43;37.80;;;29.90;;
56173;SDS011;42058;52.308;20.924;2023-06-22T03:56:11;35.30;;;30.40;;
56173;SDS011;42058;52.308;20.924;2023-06-22T03:58:38;37.70;;;30.80;;
56173;SDS011;42058;52.308;20.924;2023-06-22T04:01:10;35.70;;;29.40;;
56173;SDS011;42058;52.308;20.924;2023-06-22T04:03:39;38.20;;;29.30;;
56173;SDS011;42058;52.308;20.924;2023-06-22T04:06:23;35.30;;;30.10;;
56173;SDS011;42058;52.308;20.924;2023-06-22T04:08:50;36.60;;;30.20;;
56173;SDS011;42058;52.308;20.924;2023-06-22T04:11:19;34.00;;;28.60;;
56173;SDS011;42058;52.308;20.924;2023-06-22T04:13:46;35.90;;;29.80;;
56173;SDS011;42058;52.308;20.924;2023-06-22T04:16:16;36.10;;;28.10;;
56173;SDS011;42058;52.308;20.924;2023-06-22T04:18:43;35.00;;;28.80;;
56173;SDS011;42058;52.308;20.924;2023-06-22T04:21:11;35.30;;;27.80;;
56173;SDS011;42058;52.308;20.924;2023-06-22T04:23:39;33.90;;;27.60;;
56173;SDS011;42058;52.308;20.924;2023-06-22T04:26:07;34.60;;;27.70;;
56173;SDS011;42058;52.308;20.924;2023-06-22T04:28:34;32.80;;;28.20;;
56173;SDS011;42058;52.308;20.924;2023-06-22T04:31:02;35.60;;;27.70;;
56173;SDS011;42058;52.308;20.924;2023-06-22T04:33:31;33.00;;;27.50;;
56173;SDS011;42058;52.308;20.924;2023-06-22T04:35:59;33.00;;;27.00;;
56173;SDS011;42058;52.308;20.924;2023-06-22T04:38:31;39.80;;;26.40;;
56173;SDS011;42058;52.308;20.924;2023-06-22T04:41:00;35.80;;;26.10;;
56173;SDS011;42058;52.308;20.924;2023-06-22T04:43:31;32.50;;;26.00;;
56173;SDS011;42058;52.308;20.924;2023-06-22T04:45:59;32.00;;;26.60;;
56173;SDS011;42058;52.308;20.924;2023-06-22T04:48:31;31.00;;;25.90;;
56173;SDS011;42058;52.308;20.924;2023-06-22T04:51:01;34.10;;;26.60;;
56173;SDS011;42058;52.308;20.924;2023-06-22T04:53:32;31.10;;;25.40;;
56173;SDS011;42058;52.308;20.924;2023-06-22T04:55:59;33.20;;;24.40;;
56173;SDS011;42058;52.308;20.924;2023-06-22T04:58:27;30.10;;;24.90;;
56173;SDS011;42058;52.308;20.924;2023-06-22T05:00:56;35.60;;;26.10;;
56173;SDS011;42058;52.308;20.924;2023-06-22T14:17:55;4.40;;;3.90;;
56173;SDS011;42058;52.308;20.924;2023-06-22T14:20:33;4.50;;;3.50;;
56173;SDS011;42058;52.308;20.924;2023-06-22T14:23:00;6.30;;;3.80;;
56173;SDS011;42058;52.308;20.924;2023-06-22T14:25:29;4.10;;;3.80;;
56173;SDS011;42058;52.308;20.924;2023-06-22T14:27:59;5.00;;;3.50;;
56173;SDS011;42058;52.308;20.924;2023-06-22T14:30:28;6.30;;;3.30;;
56173;SDS011;42058;52.308;20.924;2023-06-22T14:32:57;3.90;;;3.60;;
56173;SDS011;42058;52.308;20.924;2023-06-22T14:35:38;5.90;;;3.50;;
56173;SDS011;42058;52.308;20.924;2023-06-22T14:38:40;5.40;;;3.60;;
56173;SDS011;42058;52.308;20.924;2023-06-22T14:41:11;4.50;;;3.60;;
56173;SDS011;42058;52.308;20.924;2023-06-22T14:43:45;4.60;;;3.80;;
56173;SDS011;42058;52.308;20.924;2023-06-22T14:46:18;3.60;;;3.30;;
56173;SDS011;42058;52.308;20.924;2023-06-22T14:48:49;5.80;;;3.60;;
56173;SDS011;42058;52.308;20.924;2023-06-22T14:51:19;5.90;;;3.60;;
56173;SDS011;42058;52.308;20.924;2023-06-22T14:53:47;5.20;;;3.60;;
56173;SDS011;42058;52.308;20.924;2023-06-22T14:56:14;3.80;;;3.50;;
56173;SDS011;42058;52.308;20.924;2023-06-22T14:58:43;4.20;;;3.50;;
56173;SDS011;42058;52.308;20.924;2023-06-22T15:01:15;4.00;;;3.60;;
56173;SDS011;42058;52.308;20.924;2023-06-22T15:03:46;4.50;;;3.20;;
56173;SDS011;42058;52.308;20.924;2023-06-22T15:06:18;4.10;;;3.30;;
56173;SDS011;42058;52.308;20.924;2023-06-22T15:08:50;5.00;;;3.00;;
56173;SDS011;42058;52.308;20.924;2023-06-22T15:11:20;5.10;;;3.40;;
56173;SDS011;42058;52.308;20.924;2023-06-22T15:13:51;7.50;;;3.60;;
56173;SDS011;42058;52.308;20.924;2023-06-22T15:16:20;5.90;;;3.60;;
56173;SDS011;42058;52.308;20.924;2023-06-22T15:18:49;4.50;;;3.10;;
56173;SDS011;42058;52.308;20.924;2023-06-22T15:21:17;5.20;;;3.30;;
56173;SDS011;42058;52.308;20.924;2023-06-22T15:23:45;6.70;;;3.20;;
56173;SDS011;42058;52.308;20.924;2023-06-22T15:26:13;4.40;;;3.00;;
56173;SDS011;42058;52.308;20.924;2023-06-22T15:28:41;4.20;;;3.10;;
56173;SDS011;42058;52.308;20.924;2023-06-22T15:31:09;4.20;;;3.30;;
56173;SDS011;42058;52.308;20.924;2023-06-22T15:33:44;8.00;;;3.00;;
56173;SDS011;42058;52.308;20.924;2023-06-22T19:31:36;19.10;;;13.00;;
56173;SDS011;42058;52.308;20.924;2023-06-22T19:34:09;22.70;;;14.60;;
56173;SDS011;42058;52.308;20.924;2023-06-22T19:36:36;23.00;;;16.30;;
56173;SDS011;42058;52.308;20.924;2023-06-22T19:39:03;24.10;;;17.70;;
56173;SDS011;42058;52.308;20.924;2023-06-22T19:41:31;28.30;;;17.70;;
56173;SDS011;42058;52.308;20.924;2023-06-22T19:44:01;23.40;;;17.50;;
56173;SDS011;42058;52.308;20.924;2023-06-22T19:46:31;22.80;;;15.80;;
56173;SDS011;42058;52.308;20.924;2023-06-22T19:49:01;20.70;;;14.30;;
56173;SDS011;42058;52.308;20.924;2023-06-22T19:51:31;17.00;;;11.90;;
56173;SDS011;42058;52.308;20.924;2023-06-22T19:54:08;20.00;;;12.80;;
56173;SDS011;42058;52.308;20.924;2023-06-22T19:56:38;23.10;;;13.80;;
56173;SDS011;42058;52.308;20.924;2023-06-22T19:59:13;26.10;;;16.90;;
56173;SDS011;42058;52.308;20.924;2023-06-22T20:01:41;28.70;;;18.50;;
56173;SDS011;42058;52.308;20.924;2023-06-22T20:04:10;25.80;;;16.80;;
56173;SDS011;42058;52.308;20.924;2023-06-22T20:06:37;26.50;;;17.20;;
56173;SDS011;42058;52.308;20.924;2023-06-22T20:09:04;23.40;;;16.60;;
56173;SDS011;42058;52.308;20.924;2023-06-22T20:11:33;22.80;;;16.20;;
56173;SDS011;42058;52.308;20.924;2023-06-22T20:14:00;21.30;;;15.40;;
56173;SDS011;42058;52.308;20.924;2023-06-22T20:16:28;23.90;;;15.70;;
56173;SDS011;42058;52.308;20.924;2023-06-22T20:19:05;22.90;;;15.90;;
56173;SDS011;42058;52.308;20.924;2023-06-22T20:21:33;20.60;;;15.30;;
56173;SDS011;42058;52.308;20.924;2023-06-22T20:24:03;24.00;;;15.00;;
56173;SDS011;42058;52.308;20.924;2023-06-22T20:26:41;19.10;;;13.70;;
56173;SDS011;42058;52.308;20.924;2023-06-22T20:34:34;18.80;;;13.80;;
56173;SDS011;42058;52.308;20.924;2023-06-22T20:37:02;20.20;;;13.40;;
56173;SDS011;42058;52.308;20.924;2023-06-22T20:39:28;18.80;;;13.80;;
56173;SDS011;42058;52.308;20.924;2023-06-22T20:41:56;23.40;;;15.60;;
56173;SDS011;42058;52.308;20.924;2023-06-22T20:44:24;29.30;;;21.00;;
56173;SDS011;42058;52.308;20.924;2023-06-22T20:46:50;23.70;;;16.90;;
56173;SDS011;42058;52.308;20.924;2023-06-22T20:49:17;23.10;;;16.40;;
56173;SDS011;42058;52.308;20.924;2023-06-22T20:51:43;19.40;;;14.20;;
56173;SDS011;42058;52.308;20.924;2023-06-22T20:54:10;19.00;;;13.10;;
56173;SDS011;42058;52.308;20.924;2023-06-22T20:56:36;16.90;;;11.80;;
56173;SDS011;42058;52.308;20.924;2023-06-22T20:59:03;17.50;;;11.60;;
56173;SDS011;42058;52.308;20.924;2023-06-22T21:01:29;15.20;;;11.20;;
56173;SDS011;42058;52.308;20.924;2023-06-22T21:03:59;18.80;;;10.60;;
56173;SDS011;42058;52.308;20.924;2023-06-22T21:06:29;19.70;;;11.20;;
56173;SDS011;42058;52.308;20.924;2023-06-22T21:08:59;15.10;;;11.30;;
56173;SDS011;42058;52.308;20.924;2023-06-22T21:11:28;16.40;;;11.70;;
56173;SDS011;42058;52.308;20.924;2023-06-22T21:13:54;15.80;;;10.80;;
56173;SDS011;42058;52.308;20.924;2023-06-22T21:16:28;16.70;;;10.30;;
56173;SDS011;42058;52.308;20.924;2023-06-22T21:18:55;14.20;;;10.00;;
56173;SDS011;42058;52.308;20.924;2023-06-22T21:21:21;12.80;;;9.80;;
56173;SDS011;42058;52.308;20.924;2023-06-22T21:23:48;14.30;;;10.00;;
56173;SDS011;42058;52.308;20.924;2023-06-22T21:26:14;14.60;;;10.20;;
56173;SDS011;42058;52.308;20.924;2023-06-22T21:28:41;14.10;;;10.50;;
56173;SDS011;42058;52.308;20.924;2023-06-22T21:31:07;13.70;;;10.10;;
56173;SDS011;42058;52.308;20.924;2023-06-22T21:33:33;18.40;;;9.80;;
56173;SDS011;42058;52.308;20.924;2023-06-22T21:36:00;12.60;;;9.90;;
56173;SDS011;42058;52.308;20.924;2023-06-22T21:38:27;10.40;;;8.80;;
56173;SDS011;42058;52.308;20.924;2023-06-22T21:40:53;18.20;;;8.80;;
56173;SDS011;42058;52.308;20.924;2023-06-22T21:43:19;10.80;;;8.20;;
56173;SDS011;42058;52.308;20.924;2023-06-22T21:45:46;16.10;;;10.90;;
56173;SDS011;42058;52.308;20.924;2023-06-22T21:48:16;15.90;;;10.30;;
56173;SDS011;42058;52.308;20.924;2023-06-22T21:50:43;12.10;;;8.50;;
56173;SDS011;42058;52.308;20.924;2023-06-22T21:53:09;11.50;;;8.90;;
56173;SDS011;42058;52.308;20.924;2023-06-22T21:55:35;13.20;;;9.00;;
56173;SDS011;42058;52.308;20.924;2023-06-22T21:58:04;13.50;;;9.10;;
56173;SDS011;42058;52.308;20.924;2023-06-22T22:00:33;13.70;;;8.60;;
56173;SDS011;42058;52.308;20.924;2023-06-22T22:02:59;10.20;;;7.70;;
56173;SDS011;42058;52.308;20.924;2023-06-22T22:05:26;8.70;;;6.90;;
56173;SDS011;42058;52.308;20.924;2023-06-22T22:07:52;11.80;;;7.00;;
56173;SDS011;42058;52.308;20.924;2023-06-22T22:10:18;9.30;;;6.90;;
56173;SDS011;42058;52.308;20.924;2023-06-22T22:12:45;9.90;;;7.20;;
56173;SDS011;42058;52.308;20.924;2023-06-22T22:15:12;14.00;;;7.80;;
56173;SDS011;42058;52.308;20.924;2023-06-22T22:17:38;9.20;;;7.20;;
56173;SDS011;42058;52.308;20.924;2023-06-22T22:20:04;9.40;;;7.40;;
56173;SDS011;42058;52.308;20.924;2023-06-22T22:22:32;10.20;;;7.50;;
56173;SDS011;42058;52.308;20.924;2023-06-22T22:24:58;11.90;;;7.70;;
56173;SDS011;42058;52.308;20.924;2023-06-22T22:27:25;8.90;;;6.60;;
56173;SDS011;42058;52.308;20.924;2023-06-22T22:29:51;9.40;;;6.80;;
56173;SDS011;42058;52.308;20.924;2023-06-22T22:32:18;9.10;;;6.20;;
56173;SDS011;42058;52.308;20.924;2023-06-22T22:34:48;10.50;;;5.90;;
56173;SDS011;42058;52.308;20.924;2023-06-22T22:37:14;11.20;;;6.00;;
56173;SDS011;42058;52.308;20.924;2023-06-22T22:39:41;6.60;;;5.90;;
56173;SDS011;42058;52.308;20.924;2023-06-22T22:42:07;8.50;;;6.00;;
56173;SDS011;42058;52.308;20.924;2023-06-22T22:44:37;8.70;;;5.80;;
56173;SDS011;42058;52.308;20.924;2023-06-22T22:47:03;7.40;;;5.70;;
56173;SDS011;42058;52.308;20.924;2023-06-22T22:49:33;9.80;;;6.20;;
56173;SDS011;42058;52.308;20.924;2023-06-22T22:51:59;8.20;;;5.90;;
56173;SDS011;42058;52.308;20.924;2023-06-22T22:54:26;7.80;;;5.90;;
56173;SDS011;42058;52.308;20.924;2023-06-22T22:56:52;8.50;;;5.40;;
56173;SDS011;42058;52.308;20.924;2023-06-22T22:59:19;10.10;;;6.00;;
56173;SDS011;42058;52.308;20.924;2023-06-22T23:01:45;6.90;;;5.70;;
56173;SDS011;42058;52.308;20.924;2023-06-22T23:04:12;6.90;;;5.60;;
56173;SDS011;42058;52.308;20.924;2023-06-22T23:06:44;9.10;;;5.50;;
56173;SDS011;42058;52.308;20.924;2023-06-22T23:09:11;7.70;;;6.00;;
56173;SDS011;42058;52.308;20.924;2023-06-22T23:11:37;9.70;;;6.00;;
56173;SDS011;42058;52.308;20.924;2023-06-22T23:14:03;9.60;;;6.20;;
56173;SDS011;42058;52.308;20.924;2023-06-22T23:16:30;8.70;;;6.10;;
56173;SDS011;42058;52.308;20.924;2023-06-22T23:18:56;7.40;;;6.20;;
56173;SDS011;42058;52.308;20.924;2023-06-22T23:21:22;8.60;;;6.10;;
56173;SDS011;42058;52.308;20.924;2023-06-22T23:23:49;8.70;;;5.90;;
56173;SDS011;42058;52.308;20.924;2023-06-22T23:26:15;7.70;;;5.40;;
56173;SDS011;42058;52.308;20.924;2023-06-22T23:28:42;13.90;;;6.10;;
56173;SDS011;42058;52.308;20.924;2023-06-22T23:31:09;10.50;;;6.10;;
56173;SDS011;42058;52.308;20.924;2023-06-22T23:33:36;11.30;;;6.10;;
56173;SDS011;42058;52.308;20.924;2023-06-22T23:36:04;10.20;;;5.60;;
56173;SDS011;42058;52.308;20.924;2023-06-22T23:38:30;9.50;;;6.40;;
56173;SDS011;42058;52.308;20.924;2023-06-22T23:41:00;7.30;;;5.70;;
56173;SDS011;42058;52.308;20.924;2023-06-22T23:43:29;8.10;;;6.10;;
56173;SDS011;42058;52.308;20.924;2023-06-22T23:45:58;6.70;;;5.50;;
56173;SDS011;42058;52.308;20.924;2023-06-22T23:48:28;8.50;;;6.00;;
56173;SDS011;42058;52.308;20.924;2023-06-22T23:50:54;8.40;;;5.90;;
56173;SDS011;42058;52.308;20.924;2023-06-22T23:53:25;8.50;;;6.50;;
56173;SDS011;42058;52.308;20.924;2023-06-22T23:55:56;8.10;;;6.00;;
56173;SDS011;42058;52.308;20.924;2023-06-22T23:58:23;7.90;;;6.00;;
